Time;durP1;ratioP1;P1;durP2;ratioP2;P2;SDS_P1;SDS_P2;PMS_P1;PMS_P2;Temp;Humidity;BMP_temperature;BMP_pressure;BME280_temperature;BME280_humidity;BME280_pressure;Samples;Min_cycle;Max_cycle;Signal;HPM_P1;HPM_P2
2023/07/10 00:01:36;;;;;;;8.03;5.97;;;;;;;24.91;69.05;98326.00;4151430;28;21292;-82
2023/07/10 00:03:43;;;;;;;8.30;5.60;;;;;;;24.87;69.68;98328.25;4153056;28;21200;-82
2023/07/10 00:05:45;;;;;;;7.87;5.80;;;;;;;24.81;69.35;98334.31;4163910;28;20658;-81
2023/07/10 00:07:48;;;;;;;7.13;6.20;;;;;;;24.76;70.86;98330.53;4146769;28;20708;-82
2023/07/10 00:09:52;;;;;;;7.23;5.50;;;;;;;24.72;71.21;98323.94;4156204;28;20660;-82
2023/07/10 00:11:55;;;;;;;7.27;5.60;;;;;;;24.66;70.73;98327.38;4148045;28;20649;-82
2023/07/10 00:13:58;;;;;;;9.07;5.80;;;;;;;24.60;69.92;98333.44;4146498;28;20757;-82
2023/07/10 00:16:02;;;;;;;8.13;5.83;;;;;;;24.55;70.89;98321.66;4148500;28;20628;-82
2023/07/10 00:18:12;;;;;;;8.23;6.13;;;;;;;24.48;70.36;98326.09;4147612;28;20660;-82
2023/07/10 00:20:17;;;;;;;9.37;5.97;;;;;;;24.45;70.25;98321.13;4156134;28;20637;-83
2023/07/10 00:22:20;;;;;;;7.67;5.87;;;;;;;24.41;71.16;98320.66;4154687;28;20717;-82
2023/07/10 00:24:23;;;;;;;7.63;6.13;;;;;;;24.41;71.25;98323.31;4156140;28;20652;-82
2023/07/10 00:26:26;;;;;;;7.43;6.00;;;;;;;24.40;71.55;98319.03;4164292;28;20651;-82
2023/07/10 00:28:30;;;;;;;13.27;6.30;;;;;;;24.40;71.90;98328.84;4148486;28;20638;-82
2023/07/10 00:30:33;;;;;;;6.37;5.43;;;;;;;24.38;71.00;98321.03;4151330;28;21822;-82
2023/07/10 00:32:39;;;;;;;8.17;5.60;;;;;;;24.36;71.58;98323.06;4136653;28;20697;-82
2023/07/10 00:34:42;;;;;;;8.80;5.90;;;;;;;24.34;71.27;98319.75;4135458;28;21228;-82
2023/07/10 00:36:50;;;;;;;7.10;5.70;;;;;;;24.31;72.07;98321.91;4151408;28;20704;-82
2023/07/10 00:38:54;;;;;;;11.70;6.40;;;;;;;24.29;71.39;98315.94;4130334;28;20618;-82
2023/07/10 00:40:58;;;;;;;7.50;5.80;;;;;;;24.29;71.81;98327.44;4138968;28;20642;-82
2023/07/10 00:43:03;;;;;;;7.90;6.17;;;;;;;24.27;71.23;98329.47;4146424;28;20667;-82
2023/07/10 00:45:08;;;;;;;5.73;5.13;;;;;;;24.25;71.04;98330.66;4152770;28;21224;-82
2023/07/10 00:47:17;;;;;;;8.87;6.17;;;;;;;24.22;71.53;98331.84;4147672;28;20622;-82
2023/07/10 00:49:30;;;;;;;8.60;5.77;;;;;;;24.18;70.59;98335.88;4134113;28;21246;-82
2023/07/10 00:51:37;;;;;;;9.70;5.37;;;;;;;24.12;71.75;98332.31;4154803;28;20668;-82
2023/07/10 00:53:42;;;;;;;8.87;6.30;;;;;;;24.05;72.22;98323.38;4138765;28;21203;-82
2023/07/10 00:55:46;;;;;;;9.03;5.90;;;;;;;23.93;71.69;98317.66;4163546;28;21230;-82
2023/07/10 00:57:52;;;;;;;7.37;5.43;;;;;;;23.86;72.44;98318.56;4128202;28;20634;-82
2023/07/10 00:59:55;;;;;;;7.70;5.90;;;;;;;23.86;71.76;98326.56;4149810;28;21067;-82
2023/07/10 01:02:17;;;;;;;7.80;5.80;;;;;;;23.80;72.07;98316.63;4153551;28;20719;-82
2023/07/10 01:04:22;;;;;;;7.57;6.13;;;;;;;23.73;71.66;98315.72;4152944;28;20659;-82
2023/07/10 01:06:28;;;;;;;8.30;5.80;;;;;;;23.69;71.18;98338.38;4150332;28;20748;-82
2023/07/10 01:08:31;;;;;;;7.90;5.90;;;;;;;23.65;71.78;98331.78;4139627;28;20642;-82
2023/07/10 01:10:34;;;;;;;8.53;5.73;;;;;;;23.64;72.94;98350.59;4128277;28;20694;-82
2023/07/10 01:12:40;;;;;;;9.67;6.07;;;;;;;23.61;72.53;98357.06;4150115;28;20728;-82
2023/07/10 01:14:43;;;;;;;6.90;5.63;;;;;;;23.60;72.17;98373.25;4169308;28;21082;-82
2023/07/10 01:16:47;;;;;;;7.30;6.07;;;;;;;23.61;72.79;98373.06;4148542;28;20645;-82
2023/07/10 01:18:51;;;;;;;8.60;6.43;;;;;;;23.63;72.31;98383.53;4130772;28;21233;-82
2023/07/10 01:21:08;;;;;;;9.57;6.53;;;;;;;23.62;72.32;98393.38;4147863;28;20629;-82
2023/07/10 01:23:11;;;;;;;6.20;5.30;;;;;;;23.62;73.00;98390.72;4152494;28;21042;-82
2023/07/10 01:25:14;;;;;;;7.90;5.67;;;;;;;23.61;71.83;98399.69;4139482;28;20733;-82
2023/07/10 01:27:18;;;;;;;8.37;6.10;;;;;;;23.56;72.99;98407.41;4147603;28;20701;-82
2023/07/10 01:29:23;;;;;;;7.33;6.30;;;;;;;23.47;73.07;98403.13;4152491;28;20641;-82
2023/07/10 01:31:27;;;;;;;7.97;5.93;;;;;;;23.40;73.41;98415.50;4150868;28;20668;-82
2023/07/10 01:33:36;;;;;;;7.80;6.10;;;;;;;23.34;73.21;98426.84;4151768;28;20629;-83
2023/07/10 01:35:39;;;;;;;9.00;6.77;;;;;;;23.32;73.90;98428.06;4155009;28;20621;-82
2023/07/10 01:37:44;;;;;;;6.10;5.50;;;;;;;23.28;73.91;98419.56;4153352;28;20660;-82
2023/07/10 01:39:49;;;;;;;6.23;5.60;;;;;;;23.22;74.61;98420.25;4139386;28;20634;-82
2023/07/10 01:41:52;;;;;;;7.50;5.93;;;;;;;23.15;74.55;98422.97;4152142;28;20687;-82
2023/07/10 01:43:55;;;;;;;6.90;5.73;;;;;;;23.05;75.21;98422.34;4154271;28;20626;-82
2023/07/10 01:45:59;;;;;;;7.60;5.37;;;;;;;22.96;75.31;98413.59;4141228;28;20732;-82
2023/07/10 01:48:02;;;;;;;7.50;6.53;;;;;;;22.93;75.19;98418.41;4139270;28;20737;-82
2023/07/10 01:50:06;;;;;;;8.77;6.97;;;;;;;22.92;75.71;98412.22;4156366;28;21228;-82
2023/07/10 01:52:11;;;;;;;7.30;6.17;;;;;;;22.91;75.58;98407.94;4143227;28;21228;-82
2023/07/10 01:54:17;;;;;;;8.10;6.00;;;;;;;22.90;76.55;98405.44;4162837;28;20740;-82
2023/07/10 01:56:21;;;;;;;6.60;5.83;;;;;;;22.90;76.07;98389.47;4135363;28;20636;-82
2023/07/10 01:58:24;;;;;;;8.70;6.20;;;;;;;22.93;75.44;98386.47;4167025;28;20671;-82
2023/07/10 02:00:28;;;;;;;7.50;6.43;;;;;;;22.97;74.79;98388.63;4149801;28;20703;-82
2023/07/10 02:02:32;;;;;;;6.63;5.80;;;;;;;22.99;74.97;98375.97;4151901;28;20624;-82
2023/07/10 02:04:36;;;;;;;10.17;6.70;;;;;;;22.98;74.81;98368.16;4151195;28;20676;-82
2023/07/10 02:06:40;;;;;;;7.20;5.33;;;;;;;23.00;73.44;98358.97;4151137;28;20652;-82
2023/07/10 02:08:43;;;;;;;8.10;5.90;;;;;;;23.07;73.20;98356.47;4153038;28;20635;-82
2023/07/10 02:10:48;;;;;;;7.37;5.50;;;;;;;23.15;72.49;98359.06;4151994;28;20749;-82
2023/07/10 02:12:51;;;;;;;7.90;5.30;;;;;;;23.23;72.51;98366.00;4138143;28;20632;-82
2023/07/10 02:14:54;;;;;;;7.47;5.80;;;;;;;23.30;72.40;98380.28;4153236;28;20736;-82
2023/07/10 02:16:57;;;;;;;12.20;6.00;;;;;;;23.34;72.56;98378.09;4132960;28;20633;-82
2023/07/10 02:19:01;;;;;;;6.67;5.33;;;;;;;23.34;73.34;98375.44;4141246;28;20633;-82
2023/07/10 02:21:04;;;;;;;8.27;6.20;;;;;;;23.32;73.79;98367.63;4147804;28;20713;-82
2023/07/10 02:23:07;;;;;;;6.90;6.20;;;;;;;23.27;73.95;98356.69;4150558;28;20637;-82
2023/07/10 02:25:11;;;;;;;8.77;5.63;;;;;;;23.22;74.18;98361.69;4153159;28;20626;-82
2023/07/10 02:27:15;;;;;;;6.53;5.27;;;;;;;23.19;73.86;98360.41;4156149;28;20714;-82
2023/07/10 02:29:18;;;;;;;10.57;6.90;;;;;;;23.15;74.61;98359.91;4155899;28;21289;-82
2023/07/10 02:31:22;;;;;;;6.70;5.80;;;;;;;23.13;74.90;98369.09;4153835;28;21180;-82
2023/07/10 02:33:25;;;;;;;8.50;5.57;;;;;;;23.11;74.77;98377.25;4156607;28;20664;-82
2023/07/10 02:35:28;;;;;;;9.20;5.87;;;;;;;23.10;75.01;98364.13;4154624;28;20637;-82
2023/07/10 02:37:31;;;;;;;7.63;5.93;;;;;;;23.03;75.98;98357.81;4140235;28;20651;-82
2023/07/10 02:39:34;;;;;;;7.80;6.03;;;;;;;22.94;76.32;98354.41;4157487;28;20640;-82
2023/07/10 02:41:38;;;;;;;7.00;5.37;;;;;;;22.92;76.44;98350.19;4157877;28;20988;-82
2023/07/10 02:43:42;;;;;;;7.13;5.57;;;;;;;22.88;76.65;98355.06;4153521;28;20646;-82
2023/07/10 02:45:45;;;;;;;8.47;6.10;;;;;;;22.90;76.55;98354.88;4152453;28;20717;-82
2023/07/10 02:47:49;;;;;;;7.83;5.90;;;;;;;22.92;76.64;98366.16;4154248;28;20637;-82
2023/07/10 02:49:52;;;;;;;10.10;6.50;;;;;;;22.91;76.09;98356.53;4152221;28;21215;-82
2023/07/10 02:51:55;;;;;;;6.33;5.60;;;;;;;22.93;76.03;98370.50;4149932;28;20661;-82
2023/07/10 02:53:58;;;;;;;8.60;5.93;;;;;;;22.91;76.65;98383.97;4155937;28;20636;-82
2023/07/10 02:56:01;;;;;;;7.47;6.40;;;;;;;22.92;75.19;98396.25;4157706;28;20687;-82
2023/07/10 02:58:06;;;;;;;6.73;5.97;;;;;;;22.92;75.79;98406.91;4134519;28;20630;-82
2023/07/10 03:00:11;;;;;;;7.63;6.37;;;;;;;22.96;75.60;98412.78;4150813;28;20637;-82
2023/07/10 03:02:14;;;;;;;7.00;5.57;;;;;;;22.96;76.04;98410.94;4156842;28;20633;-82
2023/07/10 03:04:21;;;;;;;8.27;6.20;;;;;;;22.96;75.66;98418.09;4151336;28;21205;-82
2023/07/10 03:06:24;;;;;;;10.23;6.10;;;;;;;22.93;76.09;98418.41;4163108;28;20731;-82
2023/07/10 03:08:28;;;;;;;7.50;6.10;;;;;;;22.90;76.17;98421.41;4157127;28;20656;-82
2023/07/10 03:10:32;;;;;;;8.63;6.97;;;;;;;22.89;75.98;98427.72;4140901;28;20724;-82
2023/07/10 03:12:35;;;;;;;9.60;6.10;;;;;;;22.87;76.23;98409.28;4148919;28;20664;-82
2023/07/10 03:14:38;;;;;;;8.13;5.83;;;;;;;22.87;75.85;98406.59;4167892;28;20641;-82
2023/07/10 03:16:42;;;;;;;7.80;6.00;;;;;;;22.82;76.10;98401.00;4151568;28;20763;-82
2023/07/10 03:18:46;;;;;;;7.53;6.10;;;;;;;22.82;76.36;98405.47;4143950;28;20649;-82
2023/07/10 03:20:49;;;;;;;12.70;7.53;;;;;;;22.78;76.52;98410.31;4131117;28;20668;-82
2023/07/10 03:22:53;;;;;;;7.33;6.20;;;;;;;22.76;76.72;98433.59;4156122;28;20637;-82
2023/07/10 03:24:56;;;;;;;8.30;6.20;;;;;;;22.75;77.43;98434.59;4152098;28;20658;-82
2023/07/10 03:26:59;;;;;;;8.50;6.10;;;;;;;22.77;76.99;98442.41;4149820;28;21294;-82
2023/07/10 03:29:05;;;;;;;7.10;5.97;;;;;;;22.78;76.00;98436.09;4149165;28;20675;-82
2023/07/10 03:31:09;;;;;;;7.33;6.10;;;;;;;22.80;75.28;98421.59;4150465;28;20651;-82
2023/07/10 03:33:14;;;;;;;7.27;5.93;;;;;;;22.80;75.89;98439.41;4153548;28;20767;-82
2023/07/10 03:35:17;;;;;;;6.30;5.40;;;;;;;22.80;77.44;98458.84;4151622;28;21239;-82
2023/07/10 03:37:20;;;;;;;7.03;5.70;;;;;;;22.79;77.44;98475.81;4151035;28;21002;-82
2023/07/10 03:39:24;;;;;;;8.43;6.30;;;;;;;22.79;77.78;98467.00;4154286;28;20736;-82
2023/07/10 03:41:27;;;;;;;7.43;6.03;;;;;;;22.80;77.89;98464.16;4149491;28;20657;-82
2023/07/10 03:43:31;;;;;;;9.20;7.37;;;;;;;22.81;77.08;98465.84;4151835;28;20665;-82
2023/07/10 03:45:34;;;;;;;10.03;6.00;;;;;;;22.82;76.41;98464.00;4149165;28;20641;-82
2023/07/10 03:47:37;;;;;;;7.77;6.00;;;;;;;22.79;76.62;98456.34;4149327;28;20640;-82
2023/07/10 03:49:41;;;;;;;7.47;6.07;;;;;;;22.82;75.52;98453.34;4136262;28;20691;-82
2023/07/10 03:51:45;;;;;;;7.03;5.93;;;;;;;22.78;76.29;98460.03;4152115;28;20659;-82
2023/07/10 03:53:48;;;;;;;6.97;4.77;;;;;;;22.78;76.55;98463.50;4153887;28;20702;-82
2023/07/10 03:55:52;;;;;;;5.70;4.90;;;;;;;22.80;77.54;98476.66;4148600;28;21071;-82
2023/07/10 03:57:55;;;;;;;6.40;5.17;;;;;;;22.82;76.95;98479.97;4152503;28;20638;-82
2023/07/10 03:59:57;;;;;;;8.03;5.20;;;;;;;22.86;76.86;98487.44;4154011;28;20643;-82
2023/07/10 04:02:00;;;;;;;6.57;5.90;;;;;;;22.92;77.09;98501.91;4150210;28;20636;-82
2023/07/10 04:04:04;;;;;;;7.90;5.83;;;;;;;22.96;76.26;98504.06;4135634;28;20678;-82
2023/07/10 04:06:10;;;;;;;6.10;5.37;;;;;;;23.00;75.55;98493.91;4156879;28;20667;-82
2023/07/10 04:08:14;;;;;;;7.27;5.57;;;;;;;23.02;76.09;98491.91;4152186;28;21290;-82
2023/07/10 04:10:17;;;;;;;6.03;5.13;;;;;;;23.06;76.47;98503.88;4150122;28;20643;-82
2023/07/10 04:12:20;;;;;;;8.50;5.77;;;;;;;23.03;77.17;98510.34;4153786;28;20690;-82
2023/07/10 04:14:23;;;;;;;6.47;5.87;;;;;;;23.00;76.64;98512.53;4149623;28;20652;-82
2023/07/10 04:16:27;;;;;;;8.20;6.13;;;;;;;22.97;77.22;98511.06;4150076;28;20667;-82
2023/07/10 04:18:31;;;;;;;7.80;6.30;;;;;;;23.01;77.04;98516.88;4153370;28;20641;-82
2023/07/10 04:20:35;;;;;;;7.57;5.90;;;;;;;23.05;77.61;98516.34;4148399;28;21665;-82
2023/07/10 04:22:39;;;;;;;7.00;5.77;;;;;;;23.11;78.21;98517.47;4148079;28;20629;-82
2023/07/10 04:24:42;;;;;;;6.93;5.30;;;;;;;23.17;77.89;98522.13;4146328;28;20637;-82
2023/07/10 04:26:45;;;;;;;8.00;6.13;;;;;;;23.18;77.41;98508.63;4150751;28;20629;-82
2023/07/10 04:28:51;;;;;;;9.20;5.60;;;;;;;23.17;77.48;98508.81;4149383;28;20709;-82
2023/07/10 04:30:54;;;;;;;8.13;5.70;;;;;;;23.19;77.32;98509.50;4145964;28;20633;-82
2023/07/10 04:32:57;;;;;;;7.83;5.90;;;;;;;23.19;76.62;98508.47;4148403;28;20735;-85
2023/07/10 04:35:00;;;;;;;8.83;6.30;;;;;;;23.21;77.72;98525.13;4149301;28;20637;-82
2023/07/10 04:37:03;;;;;;;7.17;5.20;;;;;;;23.27;77.67;98535.09;4147955;28;21207;-84
2023/07/10 04:39:08;;;;;;;9.03;6.20;;;;;;;23.27;78.23;98545.75;4154309;28;20675;-84
2023/07/10 04:41:13;;;;;;;9.97;6.07;;;;;;;23.28;78.12;98546.56;4137552;28;20669;-85
2023/07/10 04:43:16;;;;;;;8.60;6.50;;;;;;;23.32;77.21;98547.88;4152637;28;20662;-86
2023/07/10 04:45:19;;;;;;;7.40;5.80;;;;;;;23.34;77.65;98557.34;4156203;28;20681;-85
2023/07/10 04:47:22;;;;;;;10.43;6.33;;;;;;;23.36;76.63;98571.34;4150217;28;20637;-85
2023/07/10 04:49:25;;;;;;;8.03;5.70;;;;;;;23.41;76.68;98570.78;4154657;28;20628;-85
2023/07/10 04:51:28;;;;;;;6.70;6.00;;;;;;;23.43;76.60;98569.63;4151071;28;20644;-84
2023/07/10 04:53:32;;;;;;;8.30;6.60;;;;;;;23.46;75.72;98565.78;4164360;28;20691;-85
2023/07/10 04:55:37;;;;;;;8.03;6.10;;;;;;;23.47;75.33;98564.78;4154616;28;20638;-84
2023/07/10 04:57:42;;;;;;;7.13;6.20;;;;;;;23.45;75.14;98543.63;4148360;28;20638;-83
2023/07/10 04:59:46;;;;;;;8.03;6.60;;;;;;;23.47;75.92;98532.81;4153122;28;20632;-80
2023/07/10 05:01:49;;;;;;;10.00;6.20;;;;;;;23.48;77.12;98529.97;4153158;28;20646;-83
2023/07/10 05:03:53;;;;;;;9.30;6.60;;;;;;;23.46;76.79;98533.84;4147342;28;22601;-84
2023/07/10 05:05:58;;;;;;;9.20;6.80;;;;;;;23.41;76.68;98536.16;4153295;28;20738;-84
2023/07/10 05:08:02;;;;;;;9.80;6.20;;;;;;;23.38;76.83;98536.53;4154596;28;21021;-84
2023/07/10 05:10:05;;;;;;;9.00;6.70;;;;;;;23.38;77.40;98536.53;4159173;28;21070;-84
2023/07/10 05:12:10;;;;;;;10.13;6.53;;;;;;;23.38;77.45;98542.69;4151712;28;20695;-84
2023/07/10 05:14:13;;;;;;;12.93;8.07;;;;;;;23.44;77.25;98541.16;4148768;28;20718;-82
2023/07/10 05:16:17;;;;;;;10.20;7.97;;;;;;;23.50;77.01;98535.97;4153604;28;20686;-82
2023/07/10 05:18:20;;;;;;;8.50;7.07;;;;;;;23.60;76.77;98541.09;4155209;28;20639;-83
2023/07/10 05:20:23;;;;;;;8.30;7.03;;;;;;;23.70;77.23;98537.22;4136300;28;21298;-82
2023/07/10 05:22:26;;;;;;;7.20;6.10;;;;;;;23.84;76.38;98539.13;4157523;28;20620;-83
2023/07/10 05:24:29;;;;;;;11.00;7.70;;;;;;;23.96;76.31;98532.41;4151878;28;20699;-83
2023/07/10 05:26:32;;;;;;;9.40;7.30;;;;;;;24.04;76.33;98524.34;4152831;28;20659;-81
2023/07/10 05:28:38;;;;;;;9.57;7.17;;;;;;;24.11;76.35;98522.63;4141850;28;20641;-82
2023/07/10 05:30:41;;;;;;;8.40;6.40;;;;;;;24.24;76.83;98529.84;4147638;28;20998;-83
2023/07/10 05:32:44;;;;;;;9.30;6.30;;;;;;;24.39;76.92;98561.97;4143566;28;20637;-82
2023/07/10 05:34:47;;;;;;;7.33;5.80;;;;;;;24.48;76.48;98596.38;4147639;28;21322;-82
2023/07/10 05:36:50;;;;;;;7.97;6.70;;;;;;;24.55;76.38;98605.34;4154973;28;20898;-82
2023/07/10 05:38:53;;;;;;;9.00;6.33;;;;;;;24.66;77.06;98602.25;4152729;28;20691;-82
2023/07/10 05:40:56;;;;;;;6.63;5.93;;;;;;;24.83;75.35;98598.41;4157910;28;20643;-82
2023/07/10 05:42:59;;;;;;;9.97;7.07;;;;;;;25.02;75.56;98592.59;4151943;28;21239;-82
2023/07/10 05:45:05;;;;;;;7.33;6.23;;;;;;;25.22;74.56;98613.25;4143848;28;20724;-82
2023/07/10 05:47:08;;;;;;;7.80;6.67;;;;;;;25.43;74.28;98613.34;4150788;28;20633;-82
2023/07/10 05:49:11;;;;;;;8.03;6.70;;;;;;;25.58;74.14;98617.69;4156427;28;20675;-81
2023/07/10 05:51:16;;;;;;;8.90;5.90;;;;;;;25.83;73.60;98619.06;4155592;28;20671;-82
2023/07/10 05:53:20;;;;;;;7.67;6.20;;;;;;;26.20;72.69;98622.41;4153504;28;20630;-82
2023/07/10 05:55:23;;;;;;;9.23;6.70;;;;;;;26.54;71.95;98617.22;4154277;28;20644;-82
2023/07/10 05:57:27;;;;;;;8.80;6.83;;;;;;;26.84;71.50;98608.88;4160244;28;20669;-82
2023/07/10 05:59:30;;;;;;;9.50;6.53;;;;;;;27.21;70.49;98612.91;4153277;28;21072;-82
2023/07/10 06:01:34;;;;;;;9.93;6.60;;;;;;;27.55;68.57;98611.09;4138684;28;21360;-82
2023/07/10 06:03:37;;;;;;;8.90;6.77;;;;;;;27.78;68.09;98605.44;4154124;28;20644;-82
2023/07/10 06:05:41;;;;;;;9.50;7.27;;;;;;;28.08;67.83;98596.88;4139989;28;20732;-82
2023/07/10 06:07:44;;;;;;;8.23;6.10;;;;;;;28.10;67.54;98597.53;4153120;28;20720;-82
2023/07/10 06:09:47;;;;;;;7.13;6.43;;;;;;;27.91;68.16;98595.59;4154658;28;20642;-82
2023/07/10 06:11:50;;;;;;;9.27;6.63;;;;;;;27.93;69.08;98598.88;4153698;28;20720;-82
2023/07/10 06:13:53;;;;;;;7.40;6.60;;;;;;;28.00;68.48;98608.63;4156166;28;20868;-82
2023/07/10 06:15:58;;;;;;;8.03;7.23;;;;;;;27.98;68.03;98627.78;4153241;28;20638;-82
2023/07/10 06:18:02;;;;;;;7.87;7.07;;;;;;;28.00;69.16;98628.44;4154411;28;20683;-82
2023/07/10 06:20:06;;;;;;;7.40;6.70;;;;;;;28.39;68.31;98635.63;4154884;28;20629;-82
2023/07/10 06:22:11;;;;;;;7.77;6.37;;;;;;;28.84;66.73;98643.81;4158422;28;21277;-82
2023/07/10 06:24:14;;;;;;;7.03;6.33;;;;;;;28.85;66.92;98640.06;4152777;28;20705;-82
2023/07/10 06:26:17;;;;;;;10.40;6.47;;;;;;;28.66;66.74;98648.09;4156386;28;20637;-82
2023/07/10 06:28:21;;;;;;;8.90;6.63;;;;;;;28.45;67.35;98642.88;4161409;28;20630;-82
2023/07/10 06:30:24;;;;;;;9.20;6.47;;;;;;;28.31;68.43;98646.56;4153071;28;20699;-82
2023/07/10 06:32:27;;;;;;;7.23;6.20;;;;;;;28.20;67.75;98651.66;4158195;28;20703;-82
2023/07/10 06:34:32;;;;;;;10.87;7.30;;;;;;;28.11;67.93;98660.91;4155873;28;20667;-82
2023/07/10 06:36:35;;;;;;;7.07;6.30;;;;;;;28.38;68.28;98654.63;4156304;28;20636;-82
2023/07/10 06:38:39;;;;;;;7.80;6.53;;;;;;;28.68;68.10;98644.19;4143116;28;20652;-82
2023/07/10 06:40:42;;;;;;;8.07;6.40;;;;;;;29.08;66.46;98640.50;4147884;28;21124;-81
2023/07/10 06:42:45;;;;;;;7.50;6.37;;;;;;;29.44;66.16;98635.53;4146959;28;20875;-83
2023/07/10 06:44:51;;;;;;;7.30;6.17;;;;;;;29.78;65.67;98636.88;4154806;28;20639;-83
2023/07/10 06:46:55;;;;;;;8.00;7.03;;;;;;;30.05;64.87;98625.03;4147990;28;20691;-81
2023/07/10 06:48:58;;;;;;;9.13;6.60;;;;;;;30.36;64.35;98622.44;4146695;28;20643;-81
2023/07/10 06:51:05;;;;;;;9.87;5.73;;;;;;;30.63;63.87;98616.69;4135817;28;20645;-82
2023/07/10 06:53:08;;;;;;;8.93;6.63;;;;;;;30.80;63.75;98598.91;4155343;28;20640;-81
2023/07/10 06:55:28;;;;;;;7.10;6.40;;;;;;;30.95;64.01;98603.78;4150721;28;21021;-81
2023/07/10 06:57:31;;;;;;;7.17;6.47;;;;;;;31.10;64.33;98609.69;4152104;28;21297;-81
2023/07/10 06:59:34;;;;;;;9.53;7.10;;;;;;;31.22;63.25;98599.00;4135075;28;20650;-81
2023/07/10 07:01:37;;;;;;;7.20;5.63;;;;;;;31.27;62.77;98596.47;4148020;28;21043;-81
2023/07/10 07:03:41;;;;;;;8.40;5.90;;;;;;;31.45;64.30;98591.94;4151845;28;20631;-81
2023/07/10 07:05:44;;;;;;;8.60;5.20;;;;;;;31.64;63.51;98601.72;4165118;28;20679;-81
2023/07/10 07:07:49;;;;;;;6.87;6.03;;;;;;;31.63;63.24;98603.56;4149535;28;20736;-81
2023/07/10 07:09:52;;;;;;;7.33;5.40;;;;;;;31.60;63.01;98600.50;4139763;28;20746;-81
2023/07/10 07:11:55;;;;;;;8.40;5.80;;;;;;;31.73;63.40;98595.78;4154487;28;21060;-81
2023/07/10 07:13:58;;;;;;;5.90;5.20;;;;;;;31.94;62.38;98595.38;4134493;28;21277;-81
2023/07/10 07:16:01;;;;;;;7.77;5.30;;;;;;;32.19;63.63;98596.06;4151631;28;21262;-81
2023/07/10 07:18:05;;;;;;;6.80;5.57;;;;;;;32.45;61.57;98600.09;4170248;28;20641;-81
2023/07/10 07:20:09;;;;;;;10.40;5.50;;;;;;;32.43;62.48;98613.03;4132707;28;21271;-81
2023/07/10 07:22:14;;;;;;;8.70;5.63;;;;;;;32.18;62.61;98610.66;4154878;28;20630;-81
2023/07/10 07:24:19;;;;;;;8.40;5.90;;;;;;;31.99;63.59;98615.22;4142433;28;20635;-81
2023/07/10 07:26:25;;;;;;;7.20;5.90;;;;;;;32.05;64.06;98606.22;4145179;28;24889;-81
2023/07/10 07:28:28;;;;;;;9.23;5.20;;;;;;;31.90;65.39;98615.72;4151982;28;20715;-81
2023/07/10 07:30:32;;;;;;;7.03;5.70;;;;;;;31.86;66.08;98622.66;4151464;28;20793;-81
2023/07/10 07:32:35;;;;;;;6.87;6.13;;;;;;;31.63;64.82;98625.16;4155713;28;20740;-81
2023/07/10 07:34:38;;;;;;;6.70;5.90;;;;;;;31.40;64.92;98630.38;4152191;28;20704;-81
2023/07/10 07:36:41;;;;;;;6.90;5.63;;;;;;;31.21;64.39;98622.44;4148439;28;21181;-81
2023/07/10 07:38:44;;;;;;;6.57;5.87;;;;;;;31.15;65.38;98631.44;4149914;28;20637;-81
2023/07/10 07:40:49;;;;;;;7.10;5.60;;;;;;;31.15;66.00;98641.38;4140358;28;20761;-81
2023/07/10 07:42:52;;;;;;;6.97;6.27;;;;;;;31.35;64.99;98636.63;4152515;28;20723;-81
2023/07/10 07:44:57;;;;;;;7.40;5.30;;;;;;;31.39;68.38;98639.50;4143657;28;20640;-81
2023/07/10 07:47:00;;;;;;;6.20;5.60;;;;;;;31.28;66.55;98644.78;4127778;28;20692;-81
2023/07/10 07:49:04;;;;;;;5.50;5.00;;;;;;;31.32;67.10;98645.16;4157082;28;21053;-81
2023/07/10 07:51:10;;;;;;;9.90;5.53;;;;;;;31.23;64.66;98639.25;4154299;28;20732;-81
2023/07/10 07:53:13;;;;;;;6.57;5.40;;;;;;;31.40;65.39;98645.75;4148075;28;20625;-81
2023/07/10 07:55:16;;;;;;;6.60;4.77;;;;;;;31.30;66.09;98640.00;4122698;28;21735;-81
2023/07/10 07:57:23;;;;;;;6.37;5.10;;;;;;;31.27;65.36;98634.22;4147387;28;20730;-81
2023/07/10 07:59:26;;;;;;;10.40;5.67;;;;;;;31.55;65.54;98644.34;4154310;28;21215;-81
2023/07/10 08:01:29;;;;;;;5.57;4.97;;;;;;;31.81;64.30;98644.06;4152834;28;20629;-81
2023/07/10 08:03:33;;;;;;;7.40;5.20;;;;;;;32.08;64.50;98646.28;4154121;28;21040;-81
2023/07/10 08:05:37;;;;;;;8.13;5.03;;;;;;;32.22;64.46;98642.38;4150159;28;20701;-81
2023/07/10 08:07:40;;;;;;;6.47;4.93;;;;;;;32.40;63.88;98653.13;4151430;28;20639;-81
2023/07/10 08:09:43;;;;;;;6.07;5.47;;;;;;;32.53;63.71;98644.91;4151539;28;20639;-81
2023/07/10 08:11:46;;;;;;;5.73;5.10;;;;;;;32.73;64.28;98648.13;4148971;28;20634;-81
2023/07/10 08:13:51;;;;;;;5.97;5.33;;;;;;;32.73;62.10;98635.47;4134755;28;20624;-81
2023/07/10 08:15:54;;;;;;;5.30;4.80;;;;;;;32.83;62.43;98648.41;4150554;28;20925;-81
2023/07/10 08:17:58;;;;;;;7.90;4.80;;;;;;;32.92;63.73;98640.53;4154500;28;20637;-80
2023/07/10 08:20:01;;;;;;;6.10;5.13;;;;;;;32.97;61.84;98639.88;4151156;28;20619;-81
2023/07/10 08:22:05;;;;;;;4.77;4.23;;;;;;;33.11;63.31;98638.63;4156100;28;20629;-81
2023/07/10 08:24:08;;;;;;;5.33;4.80;;;;;;;33.22;62.06;98633.22;4152257;28;21060;-81
2023/07/10 08:26:11;;;;;;;5.93;4.47;;;;;;;33.26;61.48;98631.72;4151481;28;21048;-79
2023/07/10 08:28:15;;;;;;;7.57;5.00;;;;;;;33.29;62.68;98642.06;4161893;28;24809;-82
2023/07/10 08:30:21;;;;;;;6.43;4.87;;;;;;;33.37;61.92;98637.09;4142491;28;21051;-84
2023/07/10 08:32:24;;;;;;;7.40;5.10;;;;;;;33.47;61.20;98633.88;4146115;28;20642;-83
2023/07/10 08:34:28;;;;;;;5.13;4.63;;;;;;;33.57;60.99;98642.22;4148950;28;20636;-85
2023/07/10 08:36:31;;;;;;;5.23;4.70;;;;;;;33.58;59.75;98643.88;4150823;28;21324;-82
2023/07/10 08:38:36;;;;;;;9.97;5.60;;;;;;;33.58;61.59;98643.88;4151192;28;21109;-82
2023/07/10 08:40:42;;;;;;;5.77;4.77;;;;;;;33.65;60.85;98642.69;4150216;28;20644;-83
2023/07/10 08:42:46;;;;;;;4.83;4.40;;;;;;;33.78;61.60;98647.03;4138285;28;21131;-82
2023/07/10 08:44:52;;;;;;;4.63;4.13;;;;;;;33.82;58.36;98647.13;4153483;28;21002;-83
2023/07/10 08:46:57;;;;;;;7.60;4.70;;;;;;;33.80;59.65;98634.06;4156053;28;20628;-83
2023/07/10 08:49:06;;;;;;;5.87;4.40;;;;;;;33.83;59.69;98640.66;4158113;28;20728;-82
2023/07/10 08:51:23;;;;;;;4.80;4.30;;;;;;;33.83;59.82;98643.38;4150012;28;20622;-83
2023/07/10 08:53:28;;;;;;;5.00;4.50;;;;;;;33.87;59.33;98646.41;4154453;28;20641;-83
2023/07/10 08:55:43;;;;;;;5.20;4.70;;;;;;;33.90;59.50;98635.94;4151177;28;21037;-83
2023/07/10 08:57:53;;;;;;;5.13;4.50;;;;;;;33.95;60.40;98640.66;4134037;28;20641;-83
2023/07/10 09:00:00;;;;;;;5.73;5.10;;;;;;;33.98;60.28;98642.88;4148462;28;20636;-83
2023/07/10 09:02:15;;;;;;;5.03;4.53;;;;;;;34.04;59.57;98642.78;4145108;28;20638;-82
2023/07/10 09:04:20;;;;;;;5.30;4.33;;;;;;;34.11;60.25;98648.88;4142217;28;20717;-83
2023/07/10 09:06:31;;;;;;;6.17;5.00;;;;;;;34.16;59.02;98648.16;4145995;28;20700;-83
2023/07/10 09:08:35;;;;;;;5.63;5.03;;;;;;;34.10;59.09;98652.66;4146187;28;20661;-82
2023/07/10 09:10:42;;;;;;;7.97;5.63;;;;;;;34.13;59.00;98646.75;4140501;28;20906;-82
2023/07/10 09:12:49;;;;;;;5.20;4.70;;;;;;;34.21;59.37;98645.56;4144553;28;21081;-83
2023/07/10 09:14:54;;;;;;;5.60;4.97;;;;;;;34.30;59.22;98641.41;4146405;28;20642;-83
2023/07/10 09:16:58;;;;;;;7.60;5.33;;;;;;;34.10;59.61;98644.53;4145793;28;20658;-83
2023/07/10 09:19:06;;;;;;;5.37;4.87;;;;;;;33.83;60.10;98643.38;4140086;28;20626;-83
2023/07/10 09:21:16;;;;;;;5.17;4.50;;;;;;;33.59;58.66;98635.50;4150080;28;20623;-83
2023/07/10 09:23:22;;;;;;;5.20;4.70;;;;;;;33.61;60.08;98641.50;4151292;28;20637;-85
2023/07/10 09:25:26;;;;;;;5.27;4.77;;;;;;;33.75;58.99;98644.78;4150679;28;20636;-83
2023/07/10 09:27:29;;;;;;;5.20;4.70;;;;;;;33.84;59.39;98652.31;4135759;28;20648;-83
2023/07/10 09:29:34;;;;;;;5.23;4.73;;;;;;;33.88;59.61;98642.66;4137864;28;20669;-83
2023/07/10 09:31:43;;;;;;;4.57;4.13;;;;;;;33.95;60.17;98660.47;4161313;28;20676;-83
2023/07/10 09:33:52;;;;;;;6.83;4.53;;;;;;;34.05;59.78;98654.44;4128998;28;20643;-82
2023/07/10 09:35:57;;;;;;;5.67;5.07;;;;;;;33.95;61.75;98651.50;4145169;28;21243;-83
2023/07/10 09:38:01;;;;;;;5.50;5.00;;;;;;;33.89;59.69;98653.25;4153248;28;21465;-83
2023/07/10 09:40:24;;;;;;;6.50;4.83;;;;;;;33.61;60.38;98640.69;4152094;28;20689;-83
2023/07/10 09:42:32;;;;;;;5.23;4.73;;;;;;;33.69;60.18;98648.44;4149924;28;21248;-83
2023/07/10 09:44:37;;;;;;;5.23;4.73;;;;;;;33.86;60.64;98640.19;4151266;28;20718;-83